createdAt,value
2023-02-18T00:01:01.930Z,16.11
2023-02-18T00:03:41.386Z,16.04
2023-02-18T00:06:40.350Z,16.02
2023-02-18T00:09:28.116Z,16.00
2023-02-18T00:12:03.174Z,15.96
2023-02-18T00:18:01.011Z,15.94
2023-02-18T00:20:50.317Z,15.89
2023-02-18T00:23:44.156Z,15.88
2023-02-18T00:26:46.460Z,15.84
2023-02-18T00:29:14.944Z,15.79
2023-02-18T00:32:03.103Z,15.75
2023-02-18T00:34:45.494Z,15.77
2023-02-18T00:37:59.970Z,15.74
2023-02-18T00:40:46.221Z,15.77
2023-02-18T00:43:37.352Z,15.71
2023-02-18T00:46:15.351Z,15.67
2023-02-18T00:48:56.892Z,15.68
2023-02-18T00:51:33.793Z,15.62
2023-02-18T00:54:31.911Z,15.61
2023-02-18T00:57:04.948Z,15.62
2023-02-18T00:59:54.998Z,15.55
2023-02-18T01:02:24.234Z,15.52
2023-02-18T01:04:54.894Z,15.58
2023-02-18T01:07:22.299Z,15.55
2023-02-18T01:09:49.995Z,15.55
2023-02-18T01:12:17.863Z,15.52
2023-02-18T01:14:47.737Z,15.54
2023-02-18T01:17:25.285Z,15.56
2023-02-18T01:20:07.377Z,15.52
2023-02-18T01:22:42.012Z,15.52
2023-02-18T01:25:13.824Z,15.47
2023-02-18T01:27:46.140Z,15.47
2023-02-18T01:30:19.975Z,15.39
2023-02-18T01:32:47.565Z,15.28
2023-02-18T01:35:24.362Z,15.33
2023-02-18T01:37:57.572Z,15.36
2023-02-18T01:40:32.082Z,15.38
2023-02-18T01:43:03.036Z,15.32
2023-02-18T01:45:39.825Z,15.30
2023-02-18T01:48:21.063Z,15.27
2023-02-18T01:50:55.059Z,15.29
2023-02-18T01:53:31.508Z,15.16
2023-02-18T01:56:06.846Z,15.13
2023-02-18T01:58:39.860Z,15.17
2023-02-18T02:01:26.871Z,15.03
2023-02-18T02:04:11.110Z,15.04
2023-02-18T02:06:54.124Z,15.06
2023-02-18T02:09:35.663Z,14.98
2023-02-18T02:12:37.456Z,15.02
2023-02-18T02:15:34.117Z,15.07
2023-02-18T02:18:29.303Z,15.02
2023-02-18T02:21:18.341Z,14.89
2023-02-18T02:24:16.760Z,14.89
2023-02-18T02:27:24.922Z,14.86
2023-02-18T02:31:00.791Z,14.90
2023-02-18T02:33:40.491Z,14.94
2023-02-18T02:36:52.612Z,14.88
2023-02-18T02:40:06.105Z,14.87
2023-02-18T02:43:06.402Z,14.85
2023-02-18T02:46:18.336Z,14.77
2023-02-18T02:49:05.065Z,14.82
2023-02-18T02:52:06.164Z,14.83
2023-02-18T02:54:46.468Z,14.78
2023-02-18T02:57:55.557Z,14.83
2023-02-18T03:01:15.425Z,14.80
2023-02-18T03:04:32.115Z,14.71
2023-02-18T03:10:47.159Z,14.70
2023-02-18T03:14:00.241Z,14.72
2023-02-18T03:16:52.577Z,14.69
2023-02-18T03:19:38.188Z,14.71
2023-02-18T03:25:19.154Z,14.68
2023-02-18T03:28:19.070Z,14.71
2023-02-18T03:31:11.547Z,14.66
2023-02-18T03:34:14.774Z,14.64
2023-02-18T03:36:46.487Z,14.61
2023-02-18T03:39:46.091Z,14.54
2023-02-18T03:42:37.206Z,14.59
2023-02-18T03:45:06.072Z,14.55
2023-02-18T03:47:35.519Z,14.49
2023-02-18T03:50:13.789Z,14.49
2023-02-18T03:52:45.351Z,14.48
2023-02-18T03:55:13.920Z,14.51
2023-02-18T03:57:41.373Z,14.49
2023-02-18T04:00:13.152Z,14.43
2023-02-18T04:02:41.065Z,14.45
2023-02-18T04:05:09.122Z,14.41
2023-02-18T04:07:36.822Z,14.42
2023-02-18T04:10:07.479Z,14.36
2023-02-18T04:12:38.133Z,14.39
2023-02-18T04:15:08.869Z,14.34
2023-02-18T04:17:44.109Z,14.33
2023-02-18T04:20:12.331Z,14.33
2023-02-18T04:22:40.136Z,14.30
2023-02-18T04:25:10.242Z,14.29
2023-02-18T04:27:40.392Z,14.28
2023-02-18T04:30:20.466Z,14.25
2023-02-18T04:32:47.981Z,14.17
2023-02-18T04:35:30.621Z,14.17
2023-02-18T04:37:58.085Z,14.18
2023-02-18T04:40:35.412Z,14.20
2023-02-18T04:43:05.670Z,14.21
2023-02-18T04:45:33.084Z,14.21
2023-02-18T04:48:00.511Z,14.16
2023-02-18T04:50:28.220Z,14.15
2023-02-18T04:52:55.575Z,14.13
2023-02-18T04:55:23.897Z,14.14
2023-02-18T04:57:54.221Z,14.16
2023-02-18T05:00:48.255Z,14.15
2023-02-18T05:03:18.154Z,14.14
2023-02-18T05:06:04.350Z,14.16
2023-02-18T05:08:45.677Z,14.15
2023-02-18T05:11:17.083Z,14.08
2023-02-18T05:13:53.232Z,14.14
2023-02-18T05:16:26.408Z,14.15
2023-02-18T05:19:21.122Z,14.10
2023-02-18T05:21:58.071Z,14.04
2023-02-18T05:24:37.267Z,14.01
2023-02-18T05:30:15.545Z,13.99
2023-02-18T05:32:49.459Z,13.93
2023-02-18T05:35:25.665Z,13.88
2023-02-18T05:38:00.180Z,13.80
2023-02-18T05:40:34.574Z,13.75
2023-02-18T05:43:09.170Z,13.63
2023-02-18T05:45:50.004Z,13.63
2023-02-18T05:48:32.211Z,13.66
2023-02-18T05:54:08.905Z,13.60
2023-02-18T05:56:58.551Z,13.53
2023-02-18T05:59:41.440Z,13.58
2023-02-18T06:02:19.856Z,13.48
2023-02-18T06:04:57.368Z,13.50
2023-02-18T06:07:30.967Z,13.47
2023-02-18T06:10:05.997Z,13.35
2023-02-18T06:12:38.231Z,13.35
2023-02-18T06:15:24.864Z,13.33
2023-02-18T06:18:01.517Z,13.33
2023-02-18T06:20:34.440Z,13.35
2023-02-18T06:23:01.925Z,13.33
2023-02-18T06:25:32.438Z,13.33
2023-02-18T06:28:22.421Z,13.31
2023-02-18T06:30:51.410Z,13.34
2023-02-18T06:33:24.750Z,13.33
2023-02-18T06:36:09.921Z,13.38
2023-02-18T06:38:49.189Z,13.34
2023-02-18T06:50:29.846Z,13.17
2023-02-18T06:53:00.656Z,13.21
2023-02-18T06:58:35.084Z,13.18
2023-02-18T07:01:25.430Z,13.15
2023-02-18T07:04:01.459Z,13.08
2023-02-18T07:06:36.568Z,13.15
2023-02-18T07:09:13.183Z,13.09
2023-02-18T07:11:53.154Z,12.95
2023-02-18T07:14:30.346Z,12.91
2023-02-18T07:20:19.040Z,12.86
2023-02-18T07:23:00.389Z,12.90
2023-02-18T07:25:36.246Z,12.88
2023-02-18T07:28:12.640Z,12.80
2023-02-18T07:30:53.471Z,12.79
2023-02-18T07:33:32.791Z,12.88
2023-02-18T07:36:02.364Z,12.91
2023-02-18T07:38:37.214Z,12.95
2023-02-18T07:41:33.490Z,12.92
2023-02-18T07:44:14.249Z,12.98
2023-02-18T07:46:54.743Z,13.02
2023-02-18T07:49:33.959Z,13.07
2023-02-18T07:52:11.846Z,13.04
2023-02-18T07:54:51.830Z,13.10
2023-02-18T07:57:22.552Z,13.14
2023-02-18T08:00:10.829Z,13.08
2023-02-18T08:03:06.080Z,13.11
2023-02-18T08:05:40.056Z,13.09
2023-02-18T08:08:37.422Z,13.09
2023-02-18T08:11:18.949Z,13.21
2023-02-18T08:14:02.279Z,13.25
2023-02-18T08:16:33.154Z,13.32
2023-02-18T08:19:34.605Z,13.41
2023-02-18T08:22:05.045Z,13.46
2023-02-18T08:24:48.960Z,13.50
2023-02-18T08:27:16.315Z,13.60
2023-02-18T08:29:45.111Z,13.73
2023-02-18T08:32:17.945Z,13.77
2023-02-18T08:34:53.230Z,13.90
2023-02-18T08:37:27.974Z,13.96
2023-02-18T08:42:40.594Z,14.63
2023-02-18T08:45:11.413Z,14.97
2023-02-18T08:48:17.041Z,15.35
2023-02-18T08:50:35.664Z,15.81
2023-02-18T08:53:05.636Z,16.19
2023-02-18T08:55:40.545Z,16.49
2023-02-18T08:58:11.120Z,16.84
2023-02-18T09:00:44.248Z,17.16
2023-02-18T09:03:18.705Z,17.41
2023-02-18T09:05:54.890Z,17.76
2023-02-18T09:08:22.086Z,18.01
2023-02-18T09:11:05.016Z,18.29
2023-02-18T09:13:41.699Z,18.50
2023-02-18T09:16:21.011Z,18.78
2023-02-18T09:19:01.634Z,19.10
2023-02-18T09:21:35.270Z,19.37
2023-02-18T09:24:02.637Z,19.54
2023-02-18T09:29:10.793Z,19.93
2023-02-18T09:31:43.913Z,20.14
2023-02-18T09:34:21.503Z,20.35
2023-02-18T09:36:49.340Z,20.59
2023-02-18T09:39:18.263Z,20.83
2023-02-18T09:41:55.339Z,20.99
2023-02-18T09:44:35.581Z,21.18
2023-02-18T09:47:50.156Z,21.43
2023-02-18T09:50:42.946Z,21.63
2023-02-18T09:53:15.434Z,21.87
2023-02-18T09:55:46.767Z,22.12
2023-02-18T09:58:25.588Z,22.23
2023-02-18T10:01:05.223Z,22.44
2023-02-18T10:03:33.000Z,22.65
2023-02-18T10:06:34.615Z,22.84
2023-02-18T10:09:15.583Z,22.96
2023-02-18T10:12:12.670Z,23.15
2023-02-18T10:15:17.445Z,23.11
2023-02-18T10:18:13.484Z,23.37
2023-02-18T10:20:41.695Z,23.78
2023-02-18T10:23:23.169Z,23.87
2023-02-18T10:25:51.755Z,23.88
2023-02-18T10:28:29.965Z,24.15
2023-02-18T10:31:05.827Z,24.09
2023-02-18T10:33:51.062Z,24.24
2023-02-18T10:36:40.295Z,24.55
2023-02-18T10:39:34.911Z,24.84
2023-02-18T10:42:59.396Z,25.10
2023-02-18T10:46:12.116Z,25.25
2023-02-18T10:48:56.978Z,25.31
2023-02-18T10:51:33.869Z,25.46
2023-02-18T10:54:15.377Z,25.61
2023-02-18T11:00:07.517Z,26.06
2023-02-18T11:02:38.929Z,26.29
2023-02-18T11:05:35.295Z,26.42
2023-02-18T11:11:26.485Z,26.78
2023-02-18T11:14:04.628Z,26.69
2023-02-18T11:16:54.089Z,26.64
2023-02-18T11:19:39.478Z,26.51
2023-02-18T11:22:32.289Z,26.85
2023-02-18T11:25:36.645Z,27.02
2023-02-18T11:28:31.997Z,26.87
2023-02-18T11:31:20.229Z,27.08
2023-02-18T11:34:02.948Z,27.27
2023-02-18T11:36:36.309Z,26.82
2023-02-18T11:39:35.303Z,27.37
2023-02-18T11:42:11.786Z,27.62
2023-02-18T11:45:10.753Z,27.62
2023-02-18T11:47:43.732Z,27.89
2023-02-18T11:50:22.938Z,28.21
2023-02-18T11:53:12.292Z,28.51
2023-02-18T11:56:09.624Z,28.31
2023-02-18T11:58:46.107Z,28.59
2023-02-18T12:01:37.873Z,29.04
2023-02-18T12:04:30.293Z,29.37
2023-02-18T12:07:33.940Z,29.20
2023-02-18T12:10:30.806Z,29.63
2023-02-18T12:13:17.188Z,29.90
2023-02-18T12:16:27.669Z,29.84
2023-02-18T12:19:47.479Z,30.08
2023-02-18T12:22:39.127Z,30.37
2023-02-18T12:25:48.042Z,30.24
2023-02-18T12:29:36.161Z,30.47
2023-02-18T12:32:34.138Z,30.72
2023-02-18T12:35:32.206Z,30.89
2023-02-18T12:41:51.847Z,31.25
2023-02-18T12:45:20.644Z,31.30
2023-02-18T12:48:44.324Z,31.37
2023-02-18T12:51:17.108Z,31.12
2023-02-18T12:54:11.291Z,30.96
2023-02-18T12:56:59.546Z,30.82
2023-02-18T13:00:05.328Z,30.21
2023-02-18T13:03:47.274Z,30.14
2023-02-18T13:06:45.573Z,30.30
2023-02-18T13:09:59.014Z,30.31
2023-02-18T13:12:44.180Z,29.64
2023-02-18T13:16:14.445Z,30.18
2023-02-18T13:18:56.747Z,29.01
2023-02-18T13:21:30.626Z,30.07
2023-02-18T13:24:40.197Z,30.00
2023-02-18T13:27:56.191Z,30.40
2023-02-18T13:33:48.025Z,29.46
2023-02-18T13:36:53.817Z,28.49
2023-02-18T13:39:58.522Z,29.23
2023-02-18T13:42:39.373Z,28.22
2023-02-18T13:45:54.340Z,28.60
2023-02-18T13:48:48.156Z,27.60
2023-02-18T13:52:04.951Z,27.46
2023-02-18T13:55:01.076Z,27.89
2023-02-18T13:57:57.503Z,28.01
2023-02-18T14:00:47.542Z,27.32
2023-02-18T14:04:01.136Z,28.49
2023-02-18T14:06:38.714Z,25.80
2023-02-18T14:09:12.720Z,25.61
2023-02-18T14:12:20.000Z,25.75
2023-02-18T14:14:59.121Z,26.01
2023-02-18T14:18:10.867Z,25.67
2023-02-18T14:20:41.480Z,25.41
2023-02-18T14:23:40.320Z,25.21
2023-02-18T14:26:18.624Z,25.83
2023-02-18T14:29:26.254Z,25.71
2023-02-18T14:32:15.679Z,25.49
2023-02-18T14:34:59.266Z,25.15
2023-02-18T14:37:59.895Z,23.82
2023-02-18T14:47:48.480Z,25.41
2023-02-18T14:50:34.843Z,24.74
2023-02-18T14:53:47.984Z,24.57
2023-02-18T14:56:38.632Z,23.56
2023-02-18T14:59:17.174Z,23.93
2023-02-18T15:02:08.544Z,23.36
2023-02-18T15:05:41.064Z,23.73
2023-02-18T15:08:41.117Z,21.70
2023-02-18T15:11:27.234Z,22.37
2023-02-18T15:14:28.157Z,22.01
2023-02-18T15:17:03.668Z,22.42
2023-02-18T15:23:29.393Z,22.21
2023-02-18T15:26:20.291Z,22.00
2023-02-18T15:32:22.082Z,21.39
2023-02-18T15:35:24.101Z,21.40
2023-02-18T15:38:32.492Z,21.56
2023-02-18T15:41:07.645Z,21.71
2023-02-18T15:44:15.675Z,21.64
2023-02-18T15:46:46.592Z,22.01
2023-02-18T15:49:36.331Z,21.82
2023-02-18T15:53:04.401Z,21.61
2023-02-18T15:55:41.286Z,21.80
2023-02-18T15:58:21.863Z,21.28
2023-02-18T16:01:04.517Z,21.70
2023-02-18T16:03:52.504Z,21.55
2023-02-18T16:06:49.166Z,21.48
2023-02-18T16:10:09.856Z,21.06
2023-02-18T16:12:55.210Z,21.79
2023-02-18T16:15:49.401Z,21.49
2023-02-18T16:18:32.614Z,21.07
2023-02-18T16:21:13.618Z,20.96
2023-02-18T16:24:03.717Z,21.16
2023-02-18T16:26:53.918Z,21.00
2023-02-18T16:30:20.194Z,21.30
2023-02-18T16:32:50.503Z,21.28
2023-02-18T16:35:32.795Z,20.93
2023-02-18T16:38:27.847Z,21.37
2023-02-18T16:41:35.284Z,21.07
2023-02-18T16:44:15.892Z,21.01
2023-02-18T16:46:49.445Z,20.41
2023-02-18T16:49:43.436Z,20.74
2023-02-18T16:52:20.383Z,20.20
2023-02-18T16:54:57.759Z,20.35
2023-02-18T16:57:30.222Z,19.51
2023-02-18T17:00:15.574Z,19.86
2023-02-18T17:03:21.478Z,19.70
2023-02-18T17:05:58.016Z,20.11
2023-02-18T17:08:29.896Z,19.73
2023-02-18T17:11:29.366Z,19.60
2023-02-18T17:14:12.753Z,19.71
2023-02-18T17:20:01.163Z,19.85
2023-02-18T17:22:40.714Z,19.14
2023-02-18T17:25:41.090Z,19.16
2023-02-18T17:28:42.941Z,19.16
2023-02-18T17:31:35.629Z,19.69
2023-02-18T17:34:08.031Z,19.43
2023-02-18T17:40:21.633Z,19.46
2023-02-18T17:42:50.401Z,19.73
2023-02-18T17:45:30.224Z,19.24
2023-02-18T17:48:38.224Z,19.51
2023-02-18T17:51:11.717Z,19.02
2023-02-18T17:53:39.056Z,19.08
2023-02-18T17:56:19.291Z,19.14
2023-02-18T17:59:00.828Z,18.91
2023-02-18T18:01:31.929Z,19.25
2023-02-18T18:04:13.126Z,19.45
2023-02-18T18:06:40.471Z,19.47
2023-02-18T18:09:14.024Z,18.93
2023-02-18T18:11:45.633Z,18.95
2023-02-18T18:14:24.067Z,18.79
2023-02-18T18:16:56.345Z,18.59
2023-02-18T18:19:34.118Z,17.72
2023-02-18T18:22:04.522Z,18.71
2023-02-18T18:24:38.250Z,18.78
2023-02-18T18:27:09.866Z,18.95
2023-02-18T18:29:46.175Z,18.79
2023-02-18T18:32:23.949Z,18.97
2023-02-18T18:34:58.121Z,18.54
2023-02-18T18:37:28.556Z,18.50
2023-02-18T18:39:55.779Z,18.62
2023-02-18T18:42:23.149Z,18.98
2023-02-18T18:44:50.482Z,18.71
2023-02-18T18:47:23.043Z,19.06
2023-02-18T18:49:59.521Z,19.07
2023-02-18T18:52:32.914Z,18.98
2023-02-18T18:55:07.469Z,18.73
2023-02-18T18:57:47.265Z,18.09
2023-02-18T19:00:20.185Z,18.54
2023-02-18T19:02:51.126Z,18.26
2023-02-18T19:05:41.311Z,18.50
2023-02-18T19:08:13.130Z,18.54
2023-02-18T19:10:50.807Z,18.61
2023-02-18T19:13:22.684Z,18.61
2023-02-18T19:16:01.997Z,18.42
2023-02-18T19:18:35.653Z,18.63
2023-02-18T19:21:16.949Z,18.56
2023-02-18T19:23:50.239Z,18.52
2023-02-18T19:29:22.456Z,18.52
2023-02-18T19:31:53.988Z,18.71
2023-02-18T19:37:23.477Z,18.85
2023-02-18T19:40:05.788Z,19.02
2023-02-18T19:42:53.391Z,19.07
2023-02-18T19:45:21.931Z,19.09
2023-02-18T19:48:07.969Z,18.96
2023-02-18T19:51:03.731Z,19.05
2023-02-18T19:53:38.802Z,19.11
2023-02-18T19:56:13.721Z,19.05
2023-02-18T19:58:57.771Z,19.01
2023-02-18T20:04:42.567Z,18.96
2023-02-18T20:07:23.054Z,18.98
2023-02-18T20:12:42.006Z,18.99
2023-02-18T20:15:20.676Z,19.04
2023-02-18T20:18:01.425Z,19.06
2023-02-18T20:20:39.941Z,19.06
2023-02-18T20:26:15.189Z,19.08
2023-02-18T20:28:43.837Z,19.06
2023-02-18T20:31:23.748Z,18.95
2023-02-18T20:33:56.439Z,18.96
2023-02-18T20:36:33.978Z,18.97
2023-02-18T20:39:15.796Z,19.00
2023-02-18T20:41:54.988Z,18.98
2023-02-18T20:44:36.325Z,18.90
2023-02-18T20:47:25.700Z,18.86
2023-02-18T20:52:53.418Z,18.81
2023-02-18T20:58:20.633Z,18.81
2023-02-18T21:01:05.808Z,18.81
2023-02-18T21:03:54.832Z,18.78
2023-02-18T21:06:30.990Z,18.78
2023-02-18T21:12:30.601Z,18.68
2023-02-18T21:15:55.638Z,18.67
2023-02-18T21:18:32.032Z,18.58
2023-02-18T21:21:11.791Z,18.57
2023-02-18T21:23:51.392Z,18.54
2023-02-18T21:32:55.166Z,18.38
2023-02-18T21:35:30.489Z,18.39
2023-02-18T21:38:05.648Z,18.37
2023-02-18T21:40:45.009Z,18.31
2023-02-18T21:43:24.927Z,18.34
2023-02-18T21:46:32.795Z,18.28
2023-02-18T21:49:28.527Z,18.24
2023-02-18T21:52:23.344Z,18.25
2023-02-18T21:55:15.276Z,18.25
2023-02-18T21:57:56.758Z,18.22
2023-02-18T22:03:25.920Z,18.18
2023-02-18T22:05:57.024Z,18.18
2023-02-18T22:08:35.256Z,18.17
2023-02-18T22:11:08.574Z,18.14
2023-02-18T22:13:41.961Z,18.13
2023-02-18T22:16:12.041Z,18.10
2023-02-18T22:18:59.899Z,18.01
2023-02-18T22:21:37.526Z,18.03
2023-02-18T22:24:11.311Z,18.01
2023-02-18T22:26:51.529Z,17.98
2023-02-18T22:29:30.703Z,17.92
2023-02-18T22:35:29.659Z,17.82
2023-02-18T22:38:10.849Z,17.76
2023-02-18T22:47:51.488Z,17.54
2023-02-18T22:53:06.662Z,17.52
2023-02-18T22:55:50.093Z,17.50
2023-02-18T22:58:26.403Z,17.46
2023-02-18T23:03:56.043Z,17.43
2023-02-18T23:06:33.868Z,17.42
2023-02-18T23:09:12.909Z,17.40
2023-02-18T23:11:43.172Z,17.35
2023-02-18T23:14:27.587Z,17.33
2023-02-18T23:17:15.420Z,17.27
2023-02-18T23:19:57.104Z,17.23
2023-02-18T23:22:52.625Z,17.18
2023-02-18T23:25:29.971Z,17.14
2023-02-18T23:28:30.052Z,17.19
2023-02-18T23:31:01.004Z,17.12
2023-02-18T23:37:02.902Z,17.07
2023-02-18T23:39:46.137Z,17.08
2023-02-18T23:42:18.094Z,17.06
2023-02-18T23:44:56.434Z,17.03
2023-02-18T23:47:24.101Z,16.99
2023-02-18T23:49:57.252Z,17.02
2023-02-18T23:52:36.164Z,16.94
2023-02-18T23:55:25.534Z,16.95
2023-02-18T23:57:55.165Z,16.91
